Time;durP1;ratioP1;P1;durP2;ratioP2;P2;SDS_P1;SDS_P2;PMS_P1;PMS_P2;Temp;Humidity;BMP_temperature;BMP_pressure;BME280_temperature;BME280_humidity;BME280_pressure;Samples;Min_cycle;Max_cycle;Signal;HPM_P1;HPM_P2
2021/08/10 00:01:29;;;;;;;5.88;2.80;;;11.10;99.90;;;;;;5059080;28;20059;-88
2021/08/10 00:03:55;;;;;;;4.65;3.10;;;11.10;99.90;;;;;;5058611;28;20066;-88
2021/08/10 00:06:22;;;;;;;4.65;3.13;;;11.00;99.90;;;;;;5058483;28;20481;-88
2021/08/10 00:08:49;;;;;;;3.95;3.00;;;11.00;99.90;;;;;;5058669;28;20067;-88
2021/08/10 00:11:16;;;;;;;5.25;3.28;;;11.00;99.90;;;;;;5058762;28;20131;-88
2021/08/10 00:13:42;;;;;;;6.60;3.00;;;11.10;99.90;;;;;;5058344;28;20411;-88
2021/08/10 00:16:09;;;;;;;4.57;2.63;;;11.20;99.90;;;;;;5058295;28;20056;-88
2021/08/10 00:18:36;;;;;;;3.58;2.97;;;11.10;99.90;;;;;;5058821;28;20051;-88
2021/08/10 00:21:02;;;;;;;5.13;3.08;;;11.00;99.90;;;;;;5058667;28;20135;-88
2021/08/10 00:23:29;;;;;;;4.70;2.95;;;11.00;99.90;;;;;;5059650;28;20052;-88
2021/08/10 00:25:56;;;;;;;2.97;2.65;;;11.00;99.90;;;;;;5059134;28;20066;-88
2021/08/10 00:28:22;;;;;;;5.55;3.30;;;11.00;99.90;;;;;;5058175;28;20047;-88
2021/08/10 00:30:49;;;;;;;5.90;3.13;;;11.00;99.90;;;;;;5058307;28;20059;-88
2021/08/10 00:33:16;;;;;;;5.38;3.22;;;11.00;99.90;;;;;;5058304;28;20163;-88
2021/08/10 00:35:43;;;;;;;5.22;3.80;;;11.00;99.90;;;;;;5056809;28;20485;-88
2021/08/10 00:38:10;;;;;;;3.88;3.40;;;11.00;99.90;;;;;;5057764;28;20072;-89
2021/08/10 00:40:37;;;;;;;5.47;3.35;;;11.00;99.90;;;;;;5057818;28;20564;-88
2021/08/10 00:43:27;;;;;;;6.50;3.42;;;11.00;99.90;;;;;;5057743;28;20131;-87
2021/08/10 00:45:53;;;;;;;4.93;3.35;;;11.00;99.90;;;;;;5058019;28;20390;-88
2021/08/10 00:48:20;;;;;;;5.65;3.60;;;11.10;99.90;;;;;;5057639;28;20068;-88
2021/08/10 00:50:47;;;;;;;6.00;3.42;;;11.10;99.90;;;;;;5057466;28;20504;-88
2021/08/10 00:53:14;;;;;;;6.65;3.50;;;11.10;99.90;;;;;;5057742;28;20481;-87
2021/08/10 00:55:41;;;;;;;6.93;3.55;;;11.20;99.90;;;;;;5057471;28;20062;-88
2021/08/10 00:58:09;;;;;;;4.70;3.17;;;11.30;99.90;;;;;;5057511;28;20131;-89
2021/08/10 01:00:36;;;;;;;2.95;2.75;;;11.30;99.90;;;;;;5057327;28;20056;-89
2021/08/10 01:03:03;;;;;;;4.95;2.80;;;11.50;99.90;;;;;;5057654;28;20565;-90
2021/08/10 01:05:31;;;;;;;5.22;2.65;;;11.60;99.90;;;;;;5057449;28;20529;-89
2021/08/10 01:08:09;;;;;;;3.00;2.80;;;11.70;99.90;;;;;;5057467;28;20143;-89
2021/08/10 01:10:44;;;;;;;7.05;3.10;;;11.70;99.90;;;;;;5057356;28;20132;-89
2021/08/10 01:13:35;;;;;;;3.33;3.00;;;11.70;99.90;;;;;;5057291;28;20059;-88
2021/08/10 01:16:17;;;;;;;3.38;2.28;;;11.80;99.90;;;;;;5057205;28;20044;-88
2021/08/10 01:19:19;;;;;;;4.30;2.50;;;11.80;99.90;;;;;;5057147;28;20054;-89
2021/08/10 01:21:51;;;;;;;4.63;2.58;;;11.90;99.90;;;;;;5056903;28;20052;-89
2021/08/10 01:24:22;;;;;;;3.83;2.47;;;11.90;99.90;;;;;;5057012;28;20044;-89
2021/08/10 01:27:34;;;;;;;6.18;3.00;;;12.00;99.90;;;;;;5056952;28;20382;-89
2021/08/10 01:30:12;;;;;;;3.72;2.55;;;12.00;99.90;;;;;;5053875;28;20135;-88
2021/08/10 01:32:43;;;;;;;3.15;2.30;;;11.90;99.90;;;;;;5057179;28;20052;-89
2021/08/10 01:35:11;;;;;;;3.15;2.55;;;11.90;99.90;;;;;;5056908;28;20052;-88
2021/08/10 01:37:39;;;;;;;4.63;2.75;;;11.90;99.90;;;;;;5056103;28;20068;-88
2021/08/10 01:40:09;;;;;;;3.38;2.67;;;11.80;99.90;;;;;;5056488;28;20048;-88
2021/08/10 01:42:39;;;;;;;2.88;2.58;;;11.90;99.90;;;;;;5056195;28;20131;-89
2021/08/10 01:45:07;;;;;;;5.82;2.53;;;11.90;99.90;;;;;;5056657;28;20047;-89
2021/08/10 01:47:35;;;;;;;5.00;2.78;;;12.00;99.90;;;;;;5056496;28;20054;-89
2021/08/10 01:50:03;;;;;;;2.65;2.45;;;11.90;99.90;;;;;;5056420;28;20051;-88
2021/08/10 01:52:30;;;;;;;3.70;2.30;;;12.00;99.90;;;;;;5056081;28;20063;-88
2021/08/10 01:54:57;;;;;;;3.97;2.35;;;12.00;99.90;;;;;;5056157;28;20087;-89
2021/08/10 01:57:25;;;;;;;6.20;2.42;;;12.00;99.90;;;;;;5056369;28;20127;-88
2021/08/10 01:59:54;;;;;;;3.97;2.38;;;11.90;99.90;;;;;;5056514;28;20072;-88
2021/08/10 02:02:21;;;;;;;2.80;2.45;;;11.70;99.90;;;;;;5055965;28;20056;-89
2021/08/10 02:04:50;;;;;;;2.83;2.63;;;11.70;99.90;;;;;;5056299;28;20053;-89
2021/08/10 02:07:19;;;;;;;5.95;2.50;;;11.60;99.90;;;;;;5056615;28;20058;-90
2021/08/10 02:09:48;;;;;;;5.00;2.85;;;11.60;99.90;;;;;;5056242;28;20098;-88
2021/08/10 02:12:16;;;;;;;4.45;2.63;;;11.70;99.90;;;;;;5056378;28;20139;-88
2021/08/10 02:14:44;;;;;;;3.67;2.63;;;11.70;99.90;;;;;;5056492;28;20136;-88
2021/08/10 02:17:15;;;;;;;2.30;2.13;;;11.70;99.90;;;;;;5056106;28;20048;-88
2021/08/10 02:19:43;;;;;;;4.53;2.33;;;11.70;99.90;;;;;;5058655;28;20139;-88
2021/08/10 02:22:12;;;;;;;2.80;2.47;;;11.70;99.90;;;;;;5061760;28;20120;-88
2021/08/10 02:24:59;;;;;;;6.35;2.58;;;11.70;99.90;;;;;;5057220;28;20135;-88
2021/08/10 02:27:37;;;;;;;2.70;2.50;;;11.60;99.90;;;;;;5056314;28;20507;-88
2021/08/10 02:30:10;;;;;;;6.68;2.67;;;11.50;99.90;;;;;;5058112;28;20561;-89
2021/08/10 02:32:38;;;;;;;5.75;2.97;;;11.50;99.90;;;;;;5062910;28;20135;-88
2021/08/10 02:35:07;;;;;;;3.45;3.20;;;11.40;99.90;;;;;;5059466;28;20414;-89
2021/08/10 02:37:36;;;;;;;4.85;3.17;;;11.40;99.90;;;;;;5056516;28;20056;-88
2021/08/10 02:40:07;;;;;;;3.05;2.60;;;11.50;99.90;;;;;;5056149;28;20048;-89
2021/08/10 02:42:35;;;;;;;3.00;2.33;;;11.60;99.90;;;;;;5058910;28;20135;-89
2021/08/10 02:45:03;;;;;;;3.05;2.50;;;11.60;99.90;;;;;;5061296;28;20127;-89
2021/08/10 02:47:30;;;;;;;3.15;2.65;;;11.60;99.90;;;;;;5056907;28;20143;-89
2021/08/10 02:49:57;;;;;;;4.35;2.58;;;11.60;99.90;;;;;;5055950;28;20052;-89
2021/08/10 02:52:24;;;;;;;8.30;2.60;;;11.70;99.90;;;;;;5055928;28;20056;-88
2021/08/10 02:54:51;;;;;;;3.00;2.72;;;11.70;99.90;;;;;;5055885;28;20048;-89
2021/08/10 02:57:36;;;;;;;2.90;2.10;;;11.70;99.90;;;;;;5055967;28;20135;-89
2021/08/10 03:00:07;;;;;;;13.20;3.10;;;11.80;99.90;;;;;;5060006;28;20048;-89
2021/08/10 03:02:43;;;;;;;4.93;2.42;;;11.80;99.90;;;;;;5059524;28;20496;-89
2021/08/10 03:05:14;;;;;;;6.97;2.95;;;11.90;99.90;;;;;;5059827;28;20408;-88
2021/08/10 03:07:51;;;;;;;3.67;2.60;;;11.90;99.90;;;;;;5059823;28;20195;-89
2021/08/10 03:10:20;;;;;;;11.63;3.17;;;11.90;99.90;;;;;;5059767;28;20556;-90
2021/08/10 03:12:49;;;;;;;3.60;2.72;;;11.90;99.90;;;;;;5059324;28;20499;-89
2021/08/10 03:15:22;;;;;;;3.45;2.58;;;12.00;99.90;;;;;;5059856;28;20481;-89
2021/08/10 03:17:53;;;;;;;11.57;2.53;;;12.00;99.90;;;;;;5059455;28;20084;-89
2021/08/10 03:20:21;;;;;;;5.20;2.45;;;12.00;99.90;;;;;;5059229;28;20057;-89
2021/08/10 03:22:49;;;;;;;7.03;2.65;;;12.10;99.90;;;;;;5059205;28;20427;-89
2021/08/10 03:25:18;;;;;;;3.80;2.50;;;12.10;99.90;;;;;;5059583;28;20052;-88
2021/08/10 03:27:46;;;;;;;5.90;2.40;;;12.10;99.90;;;;;;5060146;28;20135;-89
2021/08/10 03:30:13;;;;;;;7.93;2.50;;;12.00;99.90;;;;;;5059718;28;20449;-90
2021/08/10 03:32:40;;;;;;;14.80;3.53;;;12.00;99.90;;;;;;5059662;28;20055;-90
2021/08/10 03:35:07;;;;;;;5.60;2.40;;;12.10;99.90;;;;;;5059517;28;20044;-89
2021/08/10 03:37:35;;;;;;;9.30;2.45;;;12.10;99.90;;;;;;5059163;28;20063;-90
2021/08/10 03:40:03;;;;;;;9.85;2.67;;;12.10;99.90;;;;;;5059326;28;20135;-89
2021/08/10 03:42:30;;;;;;;4.00;2.33;;;12.10;99.90;;;;;;5058976;28;20048;-89
2021/08/10 03:44:58;;;;;;;4.57;2.58;;;12.10;99.90;;;;;;5059385;28;20416;-90
2021/08/10 03:47:29;;;;;;;8.13;3.22;;;12.10;99.90;;;;;;5059935;28;20052;-89
2021/08/10 03:49:56;;;;;;;4.68;2.25;;;12.10;99.90;;;;;;5059444;28;20083;-90
2021/08/10 03:52:23;;;;;;;4.43;2.30;;;12.20;99.90;;;;;;5059098;28;20048;-89
2021/08/10 03:54:50;;;;;;;8.35;2.70;;;12.10;99.90;;;;;;5059111;28;20136;-90
2021/08/10 03:57:19;;;;;;;4.47;2.38;;;12.10;99.90;;;;;;5058942;28;20133;-91
2021/08/10 03:59:49;;;;;;;11.43;2.92;;;12.10;99.90;;;;;;5058983;28;20059;-89
2021/08/10 04:02:17;;;;;;;16.63;3.13;;;12.00;99.90;;;;;;5059035;28;20550;-89
2021/08/10 04:04:45;;;;;;;6.53;2.85;;;12.00;99.90;;;;;;5058984;28;20056;-89
2021/08/10 04:07:13;;;;;;;13.88;3.08;;;12.10;99.90;;;;;;5058482;28;20052;-89
2021/08/10 04:09:42;;;;;;;13.73;2.50;;;12.10;99.90;;;;;;5057324;28;20131;-89
2021/08/10 04:12:11;;;;;;;22.85;2.75;;;12.10;99.90;;;;;;5058261;28;20481;-89
2021/08/10 04:14:42;;;;;;;13.82;3.25;;;12.20;99.90;;;;;;5058454;28;20123;-89
2021/08/10 04:17:09;;;;;;;10.00;3.00;;;12.20;99.90;;;;;;5058487;28;20055;-89
2021/08/10 04:19:45;;;;;;;3.58;2.10;;;12.20;99.90;;;;;;5058603;28;20060;-89
2021/08/10 04:22:13;;;;;;;4.72;2.45;;;12.10;99.90;;;;;;5058184;28;20519;-90
2021/08/10 04:24:40;;;;;;;3.03;2.10;;;12.20;99.90;;;;;;5058164;28;20053;-90
2021/08/10 04:27:07;;;;;;;4.13;2.13;;;12.20;99.90;;;;;;5058128;28;20135;-90
2021/08/10 04:29:34;;;;;;;4.47;1.90;;;12.20;99.90;;;;;;5058260;28;20049;-90
2021/08/10 04:32:01;;;;;;;4.97;2.20;;;12.30;99.90;;;;;;5058371;28;20118;-90
2021/08/10 04:34:28;;;;;;;11.93;2.25;;;12.30;99.90;;;;;;5057992;28;20049;-90
2021/08/10 04:36:54;;;;;;;6.53;2.30;;;12.30;99.90;;;;;;5057877;28;20060;-90
2021/08/10 04:39:23;;;;;;;3.33;2.40;;;12.40;99.90;;;;;;5058293;28;20059;-89
2021/08/10 04:41:50;;;;;;;3.97;2.63;;;12.50;99.90;;;;;;5057838;28;20054;-89
2021/08/10 04:44:16;;;;;;;55.42;8.38;;;12.40;99.90;;;;;;5058067;28;20136;-90
2021/08/10 04:46:43;;;;;;;31.45;5.63;;;12.50;99.90;;;;;;5058224;28;20052;-89
2021/08/10 04:49:10;;;;;;;12.65;2.55;;;12.50;99.90;;;;;;5057410;28;20481;-89
2021/08/10 04:51:37;;;;;;;11.63;2.88;;;12.60;99.90;;;;;;5057738;28;20063;-89
2021/08/10 04:54:03;;;;;;;6.55;2.47;;;12.70;99.90;;;;;;5058020;28;20462;-90
2021/08/10 04:56:30;;;;;;;3.58;2.17;;;12.70;99.90;;;;;;5057815;28;20627;-90
2021/08/10 04:58:57;;;;;;;6.97;1.88;;;12.80;99.90;;;;;;5057932;28;20068;-90
2021/08/10 05:01:24;;;;;;;5.70;2.00;;;12.80;99.90;;;;;;5057970;28;20112;-90
2021/08/10 05:03:51;;;;;;;11.02;2.38;;;12.90;99.90;;;;;;5059608;28;20048;-91
2021/08/10 05:06:17;;;;;;;3.25;2.15;;;12.90;99.90;;;;;;5066151;28;20043;-91
2021/08/10 05:08:44;;;;;;;2.45;1.95;;;13.00;99.90;;;;;;5066937;28;20055;-90
2021/08/10 05:11:12;;;;;;;5.00;2.40;;;13.00;99.90;;;;;;5067461;28;20036;-90
2021/08/10 05:13:39;;;;;;;2.88;1.77;;;13.10;99.90;;;;;;5068330;28;20187;-91
2021/08/10 05:16:07;;;;;;;2.92;2.03;;;13.10;99.90;;;;;;5065148;28;20058;-92
2021/08/10 05:18:34;;;;;;;5.57;1.95;;;13.10;99.90;;;;;;5057300;28;20044;-91
2021/08/10 05:21:01;;;;;;;2.20;1.98;;;13.20;99.90;;;;;;5056901;28;20055;-90
2021/08/10 05:23:31;;;;;;;4.60;2.55;;;13.20;99.90;;;;;;5056859;28;20060;-89
2021/08/10 05:25:58;;;;;;;7.25;2.05;;;13.30;99.90;;;;;;5057415;28;20371;-90
2021/08/10 05:28:25;;;;;;;11.45;2.10;;;13.30;99.90;;;;;;5057326;28;20139;-90
2021/08/10 05:30:52;;;;;;;10.30;2.42;;;13.30;99.90;;;;;;5056997;28;20098;-91
2021/08/10 05:33:18;;;;;;;6.47;2.25;;;13.30;99.90;;;;;;5056935;28;20103;-90
2021/08/10 05:35:45;;;;;;;3.88;1.90;;;13.40;99.90;;;;;;5059405;28;20139;-90
2021/08/10 05:38:12;;;;;;;7.93;2.33;;;13.40;99.90;;;;;;5060103;28;20120;-90
2021/08/10 05:40:38;;;;;;;7.38;2.08;;;13.50;99.90;;;;;;5059011;28;20048;-89
2021/08/10 05:43:05;;;;;;;5.30;1.80;;;13.50;99.90;;;;;;5057304;28;20048;-90
2021/08/10 05:45:32;;;;;;;5.03;2.17;;;13.60;99.90;;;;;;5057839;28;20424;-90
2021/08/10 05:47:59;;;;;;;6.38;2.22;;;13.60;99.90;;;;;;5059208;28;20148;-89
2021/08/10 05:50:25;;;;;;;4.03;1.98;;;13.70;99.90;;;;;;5059624;28;20050;-90
2021/08/10 05:52:53;;;;;;;2.15;2.00;;;13.70;99.90;;;;;;5056843;28;20135;-90
2021/08/10 05:55:20;;;;;;;4.63;1.85;;;13.80;99.90;;;;;;5056863;28;20044;-89
2021/08/10 05:57:47;;;;;;;2.30;2.08;;;13.80;99.90;;;;;;5056087;28;20058;-89
2021/08/10 06:00:14;;;;;;;3.03;1.73;;;13.70;99.90;;;;;;5056132;28;20496;-90
2021/08/10 06:02:41;;;;;;;9.70;2.38;;;13.70;99.90;;;;;;5067477;28;20168;-91
2021/08/10 06:05:09;;;;;;;7.47;2.10;;;13.80;99.90;;;;;;5079851;28;20083;-92
2021/08/10 06:07:36;;;;;;;5.60;2.10;;;13.90;99.90;;;;;;5072702;28;20378;-91
2021/08/10 06:10:03;;;;;;;3.78;2.00;;;14.00;99.90;;;;;;5073585;28;20048;-91
2021/08/10 06:12:30;;;;;;;9.00;2.50;;;14.00;99.90;;;;;;5091929;28;20048;-91
2021/08/10 06:14:57;;;;;;;5.68;2.45;;;14.00;99.90;;;;;;5076221;28;20076;-90
2021/08/10 06:17:23;;;;;;;7.50;2.53;;;14.10;99.90;;;;;;5092986;28;20054;-89
2021/08/10 06:19:50;;;;;;;5.10;2.08;;;14.10;99.90;;;;;;5076277;28;20139;-90
2021/08/10 06:22:17;;;;;;;2.30;1.90;;;14.10;99.90;;;;;;5076280;28;20054;-90
2021/08/10 06:24:44;;;;;;;2.65;2.00;;;14.10;99.90;;;;;;5076635;28;20055;-89
2021/08/10 06:27:10;;;;;;;4.68;1.85;;;14.20;99.90;;;;;;5076587;28;20134;-91
2021/08/10 06:29:37;;;;;;;3.75;1.75;;;14.20;99.90;;;;;;5076668;28;20135;-90
2021/08/10 06:32:04;;;;;;;3.83;1.80;;;14.30;99.90;;;;;;5076230;28;20040;-90
2021/08/10 06:34:31;;;;;;;7.93;2.28;;;14.30;99.90;;;;;;5076488;28;20047;-90
2021/08/10 06:36:57;;;;;;;11.80;2.33;;;14.40;99.90;;;;;;5076216;28;20048;-90
2021/08/10 06:39:25;;;;;;;5.05;2.00;;;14.60;99.90;;;;;;5076536;28;20054;-90
2021/08/10 06:41:52;;;;;;;8.27;2.17;;;14.60;99.90;;;;;;5076318;28;20135;-90
2021/08/10 06:44:19;;;;;;;2.10;1.90;;;14.70;99.90;;;;;;5076310;28;20119;-90
2021/08/10 06:46:45;;;;;;;7.22;1.90;;;14.70;99.90;;;;;;5076440;28;20040;-90
2021/08/10 06:49:12;;;;;;;7.30;2.15;;;14.80;99.90;;;;;;5076645;28;20051;-90
2021/08/10 06:51:39;;;;;;;6.63;1.90;;;14.80;99.90;;;;;;5076135;28;20052;-90
2021/08/10 06:54:05;;;;;;;4.40;1.83;;;14.90;99.90;;;;;;5076220;28;20415;-90
2021/08/10 06:56:32;;;;;;;11.90;2.35;;;15.20;99.90;;;;;;5076123;28;20503;-90
2021/08/10 06:58:59;;;;;;;3.22;1.75;;;15.50;99.90;;;;;;5076080;28;20044;-89
2021/08/10 07:01:26;;;;;;;3.85;1.70;;;16.00;99.90;;;;;;5075950;28;20044;-89
2021/08/10 07:03:54;;;;;;;6.03;1.80;;;16.50;99.90;;;;;;5075816;28;20048;-90
2021/08/10 07:06:21;;;;;;;3.95;2.03;;;16.80;99.90;;;;;;5075791;28;20048;-90
2021/08/10 07:08:52;;;;;;;8.30;2.85;;;16.80;99.90;;;;;;5076176;28;20048;-90
2021/08/10 07:11:20;;;;;;;6.70;2.20;;;16.70;99.90;;;;;;5075983;28;20078;-90
2021/08/10 07:13:47;;;;;;;8.05;1.83;;;16.90;99.90;;;;;;5075806;28;20083;-89
2021/08/10 07:16:14;;;;;;;3.17;1.50;;;17.00;99.90;;;;;;5075824;28;20452;-89
2021/08/10 07:18:40;;;;;;;6.15;1.90;;;17.30;99.90;;;;;;5076013;28;20147;-90
2021/08/10 07:21:07;;;;;;;1.80;1.50;;;17.60;99.90;;;;;;5076207;28;20131;-89
2021/08/10 07:23:34;;;;;;;6.32;1.90;;;17.90;99.90;;;;;;5075725;28;20194;-89
2021/08/10 07:26:01;;;;;;;1.77;1.35;;;17.90;99.90;;;;;;5076569;28;20070;-89
2021/08/10 07:28:27;;;;;;;4.10;1.70;;;17.80;99.90;;;;;;5076500;28;20062;-89
2021/08/10 07:30:55;;;;;;;3.95;1.65;;;17.80;99.90;;;;;;5060131;28;20052;-89
2021/08/10 07:33:22;;;;;;;5.55;2.30;;;17.80;99.90;;;;;;5076184;28;20139;-90
2021/08/10 07:35:49;;;;;;;2.97;1.90;;;17.70;99.90;;;;;;5074941;28;20054;-90
2021/08/10 07:38:16;;;;;;;1.60;1.50;;;17.60;99.90;;;;;;5075359;28;20139;-90
2021/08/10 07:40:43;;;;;;;1.52;1.40;;;17.40;99.90;;;;;;5075565;28;20415;-89
2021/08/10 07:43:09;;;;;;;1.70;1.60;;;17.40;99.90;;;;;;5075849;28;20054;-90
2021/08/10 07:45:39;;;;;;;3.00;1.58;;;17.40;99.90;;;;;;5096931;28;20419;-90
2021/08/10 07:48:06;;;;;;;2.35;1.38;;;17.60;99.90;;;;;;5078825;28;20097;-90
2021/08/10 07:50:32;;;;;;;3.20;1.75;;;17.50;99.90;;;;;;5096620;28;20483;-90
2021/08/10 07:52:59;;;;;;;2.97;1.85;;;17.50;99.90;;;;;;5079265;28;20116;-89
2021/08/10 07:55:26;;;;;;;3.28;1.50;;;17.70;99.90;;;;;;5079200;28;20102;-89
2021/08/10 07:57:53;;;;;;;6.53;2.30;;;17.80;99.90;;;;;;5078956;28;20044;-89
2021/08/10 08:00:20;;;;;;;5.28;1.83;;;17.80;99.90;;;;;;5096304;28;20052;-88
2021/08/10 08:02:47;;;;;;;6.07;1.80;;;17.50;99.90;;;;;;5079002;28;20127;-88
2021/08/10 08:05:15;;;;;;;4.43;2.13;;;17.40;99.90;;;;;;5096091;28;20052;-88
2021/08/10 08:07:42;;;;;;;3.97;2.00;;;17.40;99.90;;;;;;5096553;28;20453;-88
2021/08/10 08:10:09;;;;;;;5.78;1.90;;;17.60;99.90;;;;;;5078936;28;20050;-88
2021/08/10 08:12:36;;;;;;;6.75;2.13;;;17.90;99.90;;;;;;5078315;28;20583;-88
2021/08/10 08:15:04;;;;;;;2.60;1.65;;;18.00;99.90;;;;;;5078611;28;20048;-88
2021/08/10 08:17:31;;;;;;;2.20;1.80;;;18.10;99.90;;;;;;5078639;28;20079;-88
2021/08/10 08:20:14;;;;;;;6.70;2.17;;;18.60;99.90;;;;;;5080928;28;20056;-88
2021/08/10 08:22:40;;;;;;;4.22;1.80;;;18.70;99.90;;;;;;5078642;28;20048;-89
2021/08/10 08:25:08;;;;;;;3.88;2.00;;;19.00;99.90;;;;;;5078549;28;20048;-88
2021/08/10 08:27:34;;;;;;;2.25;1.88;;;19.30;99.90;;;;;;5078561;28;20122;-89
2021/08/10 08:30:02;;;;;;;6.32;1.83;;;19.70;99.90;;;;;;5078314;28;20047;-89
2021/08/10 08:32:29;;;;;;;4.50;1.95;;;20.10;99.90;;;;;;5077242;28;20047;-89
2021/08/10 08:34:55;;;;;;;7.00;1.90;;;20.50;99.90;;;;;;5077162;28;20048;-87
2021/08/10 08:37:22;;;;;;;3.17;1.48;;;21.00;99.90;;;;;;5095825;28;20045;-89
2021/08/10 08:39:49;;;;;;;2.95;1.50;;;21.30;99.90;;;;;;5078414;28;20551;-89
2021/08/10 08:42:16;;;;;;;2.25;1.42;;;21.70;99.90;;;;;;5078234;28;20549;-89
2021/08/10 08:44:43;;;;;;;4.18;1.33;;;21.90;99.90;;;;;;5077878;28;20048;-89
2021/08/10 08:47:10;;;;;;;2.03;1.40;;;21.90;99.90;;;;;;5077874;28;20109;-89
2021/08/10 08:49:38;;;;;;;4.82;2.25;;;22.50;99.90;;;;;;5079617;28;20040;-88
2021/08/10 08:52:12;;;;;;;20.35;3.00;;;22.90;99.90;;;;;;5079865;28;20142;-90
2021/08/10 08:54:40;;;;;;;18.13;3.15;;;23.10;99.90;;;;;;5078301;28;20143;-90
2021/08/10 08:57:07;;;;;;;11.77;3.22;;;24.00;99.90;;;;;;5077168;28;20050;-90
2021/08/10 08:59:35;;;;;;;7.07;1.92;;;24.40;99.90;;;;;;5078108;28;20075;-88
2021/08/10 09:02:02;;;;;;;5.13;1.40;;;25.30;99.90;;;;;;5077693;28;20047;-89
2021/08/10 09:04:30;;;;;;;3.22;1.80;;;25.60;99.90;;;;;;5077902;28;20052;-89
2021/08/10 09:06:56;;;;;;;4.70;1.77;;;25.90;99.90;;;;;;5077836;28;20135;-90
2021/08/10 09:09:26;;;;;;;3.92;1.35;;;26.70;99.90;;;;;;5077713;28;20083;-90
2021/08/10 09:12:14;;;;;;;6.13;2.03;;;26.60;98.40;;;;;;5077601;28;20456;-89
2021/08/10 09:14:52;;;;;;;2.33;1.40;;;26.10;99.90;;;;;;5077323;28;20101;-90
2021/08/10 09:17:23;;;;;;;5.50;1.45;;;25.50;99.40;;;;;;5078142;28;20070;-89
2021/08/10 09:19:50;;;;;;;2.80;1.10;;;24.90;99.90;;;;;;5075980;28;20519;-89
2021/08/10 09:22:22;;;;;;;3.80;1.20;;;24.30;99.90;;;;;;5076205;28;20044;-87
2021/08/10 09:25:00;;;;;;;3.63;1.37;;;23.90;99.90;;;;;;5077200;28;20058;-88
2021/08/10 09:27:39;;;;;;;3.90;1.10;;;23.30;99.90;;;;;;5077053;28;20048;-88
2021/08/10 09:30:11;;;;;;;4.72;1.42;;;22.50;99.90;;;;;;5076985;28;20048;-88
2021/08/10 09:32:54;;;;;;;4.85;1.42;;;21.80;99.90;;;;;;5076277;28;20040;-88
2021/08/10 09:35:24;;;;;;;3.85;1.23;;;21.30;99.90;;;;;;5077024;28;20362;-88
2021/08/10 09:38:11;;;;;;;4.85;1.48;;;20.80;99.90;;;;;;5076389;28;20408;-87
2021/08/10 09:40:40;;;;;;;7.05;1.50;;;20.10;99.90;;;;;;5077055;28;20389;-88
2021/08/10 09:43:25;;;;;;;3.42;1.52;;;19.70;99.90;;;;;;5076915;28;20047;-87
2021/08/10 09:46:03;;;;;;;1.92;1.17;;;19.70;99.90;;;;;;5076819;28;20048;-88
2021/08/10 09:48:31;;;;;;;2.78;1.30;;;20.00;99.90;;;;;;5077336;28;20075;-88
2021/08/10 09:51:09;;;;;;;3.22;1.42;;;20.40;99.90;;;;;;5077295;28;20082;-88
2021/08/10 09:53:36;;;;;;;4.75;1.40;;;22.40;99.90;;;;;;5077068;28;20138;-89
2021/08/10 09:56:03;;;;;;;1.88;1.10;;;24.80;99.90;;;;;;5093937;28;20048;-88
2021/08/10 09:58:30;;;;;;;6.00;1.85;;;26.40;99.90;;;;;;5076290;28;20058;-89
2021/08/10 10:01:02;;;;;;;7.95;2.13;;;28.00;99.90;;;;;;5076680;28;20097;-89
2021/08/10 10:03:29;;;;;;;2.75;1.20;;;30.80;99.90;;;;;;5076303;28;20105;-88
2021/08/10 10:05:56;;;;;;;3.35;1.20;;;32.50;90.80;;;;;;5076410;28;20040;-90
2021/08/10 10:08:25;;;;;;;2.83;0.90;;;31.50;90.20;;;;;;5076062;28;20048;-89
2021/08/10 10:10:53;;;;;;;1.85;1.00;;;30.60;90.60;;;;;;5076908;28;20048;-89
2021/08/10 10:13:22;;;;;;;2.75;1.20;;;29.10;93.80;;;;;;5076246;28;20518;-89
2021/08/10 10:15:49;;;;;;;1.40;1.30;;;28.20;93.40;;;;;;5094065;28;20503;-89
2021/08/10 10:18:18;;;;;;;5.43;1.58;;;27.00;96.20;;;;;;5076161;28;20056;-88
2021/08/10 10:20:47;;;;;;;1.75;1.20;;;26.30;99.60;;;;;;5076286;28;20040;-88
2021/08/10 10:23:22;;;;;;;2.50;1.13;;;25.40;98.10;;;;;;5076506;28;20778;-88
2021/08/10 10:25:54;;;;;;;1.88;1.10;;;24.80;99.90;;;;;;5075973;28;20135;-89
2021/08/10 10:28:22;;;;;;;2.83;1.30;;;24.40;99.90;;;;;;5075204;28;20047;-88
2021/08/10 10:30:49;;;;;;;2.40;1.63;;;23.70;99.90;;;;;;5092866;28;20079;-88
2021/08/10 10:33:17;;;;;;;5.85;2.42;;;23.30;99.90;;;;;;5073923;28;20142;-88
2021/08/10 10:35:45;;;;;;;8.38;1.40;;;23.00;99.90;;;;;;5075861;28;20403;-86
2021/08/10 10:38:13;;;;;;;4.40;1.60;;;23.90;99.90;;;;;;5075737;28;20055;-90
2021/08/10 10:40:40;;;;;;;4.88;1.40;;;25.20;99.90;;;;;;5094014;28;20058;-91
2021/08/10 10:43:08;;;;;;;1.95;1.10;;;27.00;99.90;;;;;;5093733;28;20154;-89
2021/08/10 10:45:40;;;;;;;3.15;1.45;;;29.10;95.90;;;;;;5075812;28;20127;-89
2021/08/10 10:48:26;;;;;;;2.85;1.25;;;31.20;87.00;;;;;;5076191;28;20044;-89
2021/08/10 10:51:11;;;;;;;3.67;1.27;;;31.10;78.80;;;;;;5076126;28;20133;-90
2021/08/10 10:53:40;;;;;;;2.55;1.35;;;30.40;76.90;;;;;;5075629;28;20097;-88
2021/08/10 10:56:25;;;;;;;1.77;1.00;;;29.80;78.90;;;;;;5075615;28;20127;-88
2021/08/10 10:59:16;;;;;;;7.10;1.55;;;30.50;78.50;;;;;;5075811;28;20449;-88
2021/08/10 11:01:43;;;;;;;2.40;1.15;;;30.80;74.40;;;;;;5075378;28;20151;-90
2021/08/10 11:04:11;;;;;;;3.13;1.20;;;31.40;76.60;;;;;;5075908;28;20056;-90
2021/08/10 11:06:46;;;;;;;1.20;1.10;;;30.60;76.10;;;;;;5075545;28;20127;-93
2021/08/10 11:09:52;;;;;;;1.80;1.20;;;30.30;74.00;;;;;;5076018;28;20143;-92
2021/08/10 11:12:41;;;;;;;2.42;1.45;;;28.40;76.90;;;;;;5075451;28;20431;-90
2021/08/10 11:15:46;;;;;;;4.57;1.30;;;27.40;80.60;;;;;;5075504;28;20054;-90
2021/08/10 11:18:13;;;;;;;2.42;1.50;;;27.20;84.70;;;;;;5075462;28;20082;-89
2021/08/10 11:20:53;;;;;;;3.20;1.70;;;27.10;84.40;;;;;;5079407;28;20074;-89
2021/08/10 11:23:23;;;;;;;3.13;1.17;;;26.60;84.40;;;;;;5079661;28;20088;-90
2021/08/10 11:25:58;;;;;;;1.27;1.00;;;26.20;86.20;;;;;;5079930;28;20052;-89
2021/08/10 11:28:33;;;;;;;1.73;1.13;;;25.70;85.50;;;;;;5079345;28;20072;-89
2021/08/10 11:31:08;;;;;;;4.28;1.30;;;25.70;87.10;;;;;;5079343;28;20056;-89
2021/08/10 11:33:37;;;;;;;1.83;1.40;;;25.60;87.20;;;;;;5079061;28;20051;-88
2021/08/10 11:36:10;;;;;;;2.13;1.70;;;25.80;86.10;;;;;;5078817;28;20475;-88
2021/08/10 11:38:51;;;;;;;2.08;1.20;;;25.80;86.30;;;;;;5078750;28;20056;-89
2021/08/10 11:41:27;;;;;;;2.25;1.40;;;25.60;89.70;;;;;;5079076;28;20048;-90
2021/08/10 11:44:03;;;;;;;1.88;1.38;;;26.30;89.60;;;;;;5079224;28;20052;-90
2021/08/10 11:46:36;;;;;;;3.10;1.40;;;26.20;84.90;;;;;;5078954;28;20044;-88
2021/08/10 11:49:08;;;;;;;3.22;1.40;;;25.60;85.20;;;;;;5079282;28;20109;-89
2021/08/10 11:51:38;;;;;;;2.58;1.38;;;25.20;85.30;;;;;;5078934;28;20048;-86
2021/08/10 11:54:17;;;;;;;4.00;1.77;;;25.00;87.10;;;;;;5078604;28;20071;-85
2021/08/10 11:57:04;;;;;;;4.30;1.42;;;24.70;87.10;;;;;;5078616;28;20052;-87
2021/08/10 11:59:31;;;;;;;4.47;1.48;;;24.60;87.90;;;;;;5080064;28;20152;-89
2021/08/10 12:02:02;;;;;;;4.18;1.55;;;24.60;87.10;;;;;;5079153;28;20048;-87
2021/08/10 12:04:31;;;;;;;2.60;1.58;;;24.70;88.30;;;;;;5088188;28;20041;-87
2021/08/10 12:07:05;;;;;;;2.17;1.52;;;24.70;86.80;;;;;;5079629;28;20048;-87
2021/08/10 12:09:37;;;;;;;3.40;1.60;;;24.90;88.00;;;;;;5081268;28;20059;-91
2021/08/10 12:12:06;;;;;;;2.15;1.63;;;24.90;87.10;;;;;;5079827;28;20040;-88
2021/08/10 12:14:34;;;;;;;3.85;1.63;;;24.80;86.10;;;;;;5078695;28;20114;-87
2021/08/10 12:17:09;;;;;;;3.97;1.40;;;24.90;87.10;;;;;;5078073;28;20044;-93
2021/08/10 12:19:39;;;;;;;1.30;1.20;;;25.10;87.10;;;;;;5078422;28;20098;-87
2021/08/10 12:22:09;;;;;;;6.65;1.80;;;24.70;88.60;;;;;;5078400;28;20575;-88
2021/08/10 12:24:39;;;;;;;4.35;1.80;;;24.20;88.40;;;;;;5078259;28;20134;-87
2021/08/10 12:27:11;;;;;;;3.28;1.38;;;23.90;91.20;;;;;;5078770;28;20559;-87
2021/08/10 12:29:42;;;;;;;3.13;1.38;;;23.80;91.10;;;;;;5077785;28;20399;-88
2021/08/10 12:32:12;;;;;;;2.88;1.50;;;23.80;91.90;;;;;;5077604;28;20050;-87
2021/08/10 12:34:41;;;;;;;1.80;1.30;;;24.00;92.10;;;;;;5095533;28;20058;-86
2021/08/10 12:37:08;;;;;;;2.80;1.50;;;24.20;91.10;;;;;;5077806;28;20075;-87
2021/08/10 12:39:40;;;;;;;1.52;1.40;;;24.40;91.10;;;;;;5078093;28;20044;-88
2021/08/10 12:42:07;;;;;;;2.03;1.40;;;24.60;86.10;;;;;;5078089;28;20048;-86
2021/08/10 12:44:35;;;;;;;1.42;1.33;;;24.60;86.10;;;;;;5077772;28;20147;-89
2021/08/10 12:47:06;;;;;;;1.63;1.38;;;24.50;87.40;;;;;;5078048;28;20130;-88
2021/08/10 12:49:44;;;;;;;2.27;1.67;;;24.60;88.40;;;;;;5078101;28;20055;-87
2021/08/10 12:52:16;;;;;;;1.33;1.23;;;24.80;88.50;;;;;;5077921;28;20052;-88
2021/08/10 12:54:46;;;;;;;1.58;1.48;;;24.50;89.20;;;;;;5077912;28;20501;-88
2021/08/10 12:57:33;;;;;;;1.38;1.27;;;24.70;88.50;;;;;;5078152;28;20040;-87
2021/08/10 13:00:12;;;;;;;1.40;1.30;;;24.80;86.10;;;;;;5076743;28;20266;-88